Time;durP1;ratioP1;P1;durP2;ratioP2;P2;SDS_P1;SDS_P2;PMS_P1;PMS_P2;Temp;Humidity;BMP_temperature;BMP_pressure;BME280_temperature;BME280_humidity;BME280_pressure;Samples;Min_cycle;Max_cycle;Signal;HPM_P1;HPM_P2
2023/05/13 00:01:13;;;;;;;;;;;;;;;;;;5119198;27;20318;-69
2023/05/13 00:03:39;;;;;;;;;;;;;;;;;;5137569;27;19914;-69
2023/05/13 00:06:05;;;;;;;;;;;;;;;;;;5137191;27;19908;-69
2023/05/13 00:08:31;;;;;;;;;;;;;;;;;;5137431;27;19943;-69
2023/05/13 00:10:57;;;;;;;;;;;;;;;;;;5137525;27;19908;-69
2023/05/13 00:13:23;;;;;;;;;;;;;;;;;;5136979;27;19908;-69
2023/05/13 00:15:49;;;;;;;;;;;;;;;;;;5137167;27;19951;-69
2023/05/13 00:18:15;;;;;;;;;;;;;;;;;;5137206;27;19918;-69
2023/05/13 00:20:41;;;;;;;;;;;;;;;;;;5136788;27;19907;-69
2023/05/13 00:23:07;;;;;;;;;;;;;;;;;;5137185;27;20355;-69
2023/05/13 00:25:33;;;;;;;;;;;;;;;;;;5136944;27;19914;-69
2023/05/13 00:27:59;;;;;;;;;;;;;;;;;;5136984;27;19911;-69
2023/05/13 00:30:25;;;;;;;;;;;;;;;;;;5136995;27;20006;-69
2023/05/13 00:32:51;;;;;;;;;;;;;;;;;;5136991;27;20355;-69
2023/05/13 00:35:17;;;;;;;;;;;;;;;;;;5136934;27;20377;-69
2023/05/13 00:37:43;;;;;;;;;;;;;;;;;;5136555;27;20017;-69
2023/05/13 00:40:09;;;;;;;;;;;;;;;;;;5136309;27;19907;-69
2023/05/13 00:42:35;;;;;;;;;;;;;;;;;;5136671;27;20019;-68
2023/05/13 00:45:01;;;;;;;;;;;;;;;;;;5136766;27;20275;-69
2023/05/13 00:47:27;;;;;;;;;;;;;;;;;;5136202;27;19968;-69
2023/05/13 00:49:53;;;;;;;;;;;;;;;;;;5136597;27;19995;-69
2023/05/13 00:52:19;;;;;;;;;;;;;;;;;;5118022;27;19908;-69
2023/05/13 00:54:45;;;;;;;;;;;;;;;;;;5136276;27;19911;-69
2023/05/13 00:57:11;;;;;;;;;;;;;;;;;;5136432;27;19916;-69
2023/05/13 00:59:37;;;;;;;;;;;;;;;;;;5135761;27;19908;-69
2023/05/13 01:02:03;;;;;;;;;;;;;;;;;;5135953;27;20048;-69
2023/05/13 01:04:29;;;;;;;;;;;;;;;;;;5136328;27;19911;-69
2023/05/13 01:06:55;;;;;;;;;;;;;;;;;;5136263;27;19908;-69
2023/05/13 01:09:21;;;;;;;;;;;;;;;;;;5135849;27;19914;-69
2023/05/13 01:11:47;;;;;;;;;;;;;;;;;;5136223;27;19994;-69
2023/05/13 01:14:13;;;;;;;;;;;;;;;;;;5136163;27;19943;-69
2023/05/13 01:16:40;;;;;;;;;;;;;;;;;;5135593;27;19984;-69
2023/05/13 01:19:06;;;;;;;;;;;;;;;;;;5136003;27;19908;-69
2023/05/13 01:21:32;;;;;;;;;;;;;;;;;;5135937;27;19915;-69
2023/05/13 01:23:58;;;;;;;;;;;;;;;;;;5135458;27;19908;-69
2023/05/13 01:26:25;;;;;;;;;;;;;;;;;;5135924;27;20478;-69
2023/05/13 01:28:51;;;;;;;;;;;;;;;;;;5135457;27;19907;-69
2023/05/13 01:31:17;;;;;;;;;;;;;;;;;;5117343;27;19960;-69
2023/05/13 01:33:43;;;;;;;;;;;;;;;;;;5135765;27;20374;-69
2023/05/13 01:36:09;;;;;;;;;;;;;;;;;;5135067;27;19964;-69
2023/05/13 01:38:35;;;;;;;;;;;;;;;;;;5135695;27;19916;-69
2023/05/13 01:41:01;;;;;;;;;;;;;;;;;;5135583;27;19998;-69
2023/05/13 01:43:27;;;;;;;;;;;;;;;;;;5135109;27;19908;-69
2023/05/13 01:45:53;;;;;;;;;;;;;;;;;;5117150;27;19911;-69
2023/05/13 01:48:18;;;;;;;;;;;;;;;;;;5135529;27;19912;-69
2023/05/13 01:50:45;;;;;;;;;;;;;;;;;;5135075;27;20066;-69
2023/05/13 01:53:11;;;;;;;;;;;;;;;;;;5135368;27;19907;-69
2023/05/13 01:55:37;;;;;;;;;;;;;;;;;;5135291;27;19907;-69
2023/05/13 01:58:03;;;;;;;;;;;;;;;;;;5134902;27;19911;-69
2023/05/13 02:00:29;;;;;;;;;;;;;;;;;;5135272;27;19912;-69
2023/05/13 02:02:55;;;;;;;;;;;;;;;;;;5135477;27;19954;-69
2023/05/13 02:05:21;;;;;;;;;;;;;;;;;;5134853;27;19915;-69
2023/05/13 02:07:47;;;;;;;;;;;;;;;;;;5116766;27;19914;-69
2023/05/13 02:10:13;;;;;;;;;;;;;;;;;;5135066;27;19908;-69
2023/05/13 02:12:39;;;;;;;;;;;;;;;;;;5134543;27;20060;-69
2023/05/13 02:15:05;;;;;;;;;;;;;;;;;;5135310;27;19907;-69
2023/05/13 02:17:31;;;;;;;;;;;;;;;;;;5134959;27;19969;-69
2023/05/13 02:19:57;;;;;;;;;;;;;;;;;;5134658;27;19911;-69
2023/05/13 02:22:23;;;;;;;;;;;;;;;;;;5135091;27;19908;-69
2023/05/13 02:24:48;;;;;;;;;;;;;;;;;;5135175;27;19911;-69
2023/05/13 02:27:15;;;;;;;;;;;;;;;;;;5134530;27;19954;-69
2023/05/13 02:29:41;;;;;;;;;;;;;;;;;;5134953;27;19908;-69
2023/05/13 02:32:07;;;;;;;;;;;;;;;;;;5134607;27;20375;-69
2023/05/13 02:34:33;;;;;;;;;;;;;;;;;;5134885;28;20003;-69
2023/05/13 02:36:59;;;;;;;;;;;;;;;;;;5134773;28;19976;-69
2023/05/13 02:39:25;;;;;;;;;;;;;;;;;;5134889;28;20446;-69
2023/05/13 02:41:51;;;;;;;;;;;;;;;;;;5134759;28;19907;-69
2023/05/13 02:44:17;;;;;;;;;;;;;;;;;;5134839;28;20415;-69
2023/05/13 02:46:43;;;;;;;;;;;;;;;;;;5134304;28;20370;-69
2023/05/13 02:49:09;;;;;;;;;;;;;;;;;;5116299;28;19914;-69
2023/05/13 02:51:35;;;;;;;;;;;;;;;;;;5134941;28;20389;-69
2023/05/13 02:54:01;;;;;;;;;;;;;;;;;;5134228;28;19998;-69
2023/05/13 02:56:27;;;;;;;;;;;;;;;;;;5134456;28;19915;-69
2023/05/13 02:58:53;;;;;;;;;;;;;;;;;;5134803;28;19907;-69
2023/05/13 03:01:19;;;;;;;;;;;;;;;;;;5134215;28;20324;-69
2023/05/13 03:03:45;;;;;;;;;;;;;;;;;;5134607;28;20366;-69
2023/05/13 03:06:11;;;;;;;;;;;;;;;;;;5116151;28;19911;-69
2023/05/13 03:08:37;;;;;;;;;;;;;;;;;;5134167;28;19907;-69
2023/05/13 03:11:03;;;;;;;;;;;;;;;;;;5134526;28;20006;-69
2023/05/13 03:13:29;;;;;;;;;;;;;;;;;;5134504;28;19907;-69
2023/05/13 03:15:55;;;;;;;;;;;;;;;;;;5133974;28;20282;-69
2023/05/13 03:18:21;;;;;;;;;;;;;;;;;;5134466;28;20294;-69
2023/05/13 03:20:47;;;;;;;;;;;;;;;;;;5134449;28;20252;-69
2023/05/13 03:23:13;;;;;;;;;;;;;;;;;;5116905;27;19994;-69
2023/05/13 03:25:39;;;;;;;;;;;;;;;;;;5138446;27;19998;-69
2023/05/13 03:28:05;;;;;;;;;;;;;;;;;;5138248;27;19907;-69
2023/05/13 03:30:31;;;;;;;;;;;;;;;;;;5137735;27;20476;-69
2023/05/13 03:32:57;;;;;;;;;;;;;;;;;;5138118;27;19947;-69
2023/05/13 03:35:23;;;;;;;;;;;;;;;;;;5119249;27;20363;-69
2023/05/13 03:37:49;;;;;;;;;;;;;;;;;;5137787;27;20282;-69
2023/05/13 03:40:15;;;;;;;;;;;;;;;;;;5119644;27;20367;-69
2023/05/13 03:42:41;;;;;;;;;;;;;;;;;;5137523;27;20260;-69
2023/05/13 03:45:07;;;;;;;;;;;;;;;;;;5137918;27;19907;-69
2023/05/13 03:47:34;;;;;;;;;;;;;;;;;;5137823;27;19930;-69
2023/05/13 03:49:59;;;;;;;;;;;;;;;;;;5137392;27;19914;-69
2023/05/13 03:52:25;;;;;;;;;;;;;;;;;;5137725;27;19907;-69
2023/05/13 03:54:51;;;;;;;;;;;;;;;;;;5137976;27;19908;-69
2023/05/13 03:57:17;;;;;;;;;;;;;;;;;;5137164;27;20006;-69
2023/05/13 03:59:43;;;;;;;;;;;;;;;;;;5137624;27;20274;-68
2023/05/13 04:02:09;;;;;;;;;;;;;;;;;;5137743;27;20321;-69
2023/05/13 04:04:35;;;;;;;;;;;;;;;;;;5137154;27;19907;-69
2023/05/13 04:07:01;;;;;;;;;;;;;;;;;;5137507;27;20014;-69
2023/05/13 04:09:27;;;;;;;;;;;;;;;;;;5137422;27;19911;-69
2023/05/13 04:11:53;;;;;;;;;;;;;;;;;;5136988;27;19908;-69
2023/05/13 04:14:19;;;;;;;;;;;;;;;;;;5137354;27;19908;-69
2023/05/13 04:16:45;;;;;;;;;;;;;;;;;;5137221;27;19919;-69
2023/05/13 04:19:11;;;;;;;;;;;;;;;;;;5136856;27;19952;-68
2023/05/13 04:21:37;;;;;;;;;;;;;;;;;;5118749;27;19907;-68
2023/05/13 04:24:03;;;;;;;;;;;;;;;;;;5137205;27;20373;-68
2023/05/13 04:26:29;;;;;;;;;;;;;;;;;;5136869;27;20354;-68
2023/05/13 04:28:55;;;;;;;;;;;;;;;;;;5137003;27;19908;-69
2023/05/13 04:31:21;;;;;;;;;;;;;;;;;;5137219;27;19915;-69
2023/05/13 04:33:47;;;;;;;;;;;;;;;;;;5136521;27;20390;-69
2023/05/13 04:37:21;;;;;;;;;;;;;;;;;;5091665;27;19923;-68
2023/05/13 04:42:16;;;;;;;;;;;;;;;;;;5092075;27;19923;-69
2023/05/13 04:44:42;;;;;;;;;;;;;;;;;;5091378;28;20343;-69
2023/05/13 04:47:08;;;;;;;;;;;;;;;;;;5090999;28;19915;-69
2023/05/13 04:49:34;;;;;;;;;;;;;;;;;;5091306;28;19970;-69
2023/05/13 04:53:45;;;;;;;;;;;;;;;;;;5152610;27;19994;-68
2023/05/13 04:56:11;;;;;;;;;;;;;;;;;;5152922;27;20350;-69
2023/05/13 04:58:37;;;;;;;;;;;;;;;;;;5134312;27;19907;-69
2023/05/13 05:01:03;;;;;;;;;;;;;;;;;;5152424;27;19908;-69
2023/05/13 05:04:48;;;;;;;;;;;;;;;;;;5091831;28;19916;-68
2023/05/13 05:07:14;;;;;;;;;;;;;;;;;;5091231;28;19912;-68
2023/05/13 05:09:40;;;;;;;;;;;;;;;;;;5091620;28;20368;-68
2023/05/13 05:12:06;;;;;;;;;;;;;;;;;;5091302;28;19913;-68
2023/05/13 05:14:32;;;;;;;;;;;;;;;;;;5090826;28;19947;-68
2023/05/13 05:16:58;;;;;;;;;;;;;;;;;;5091168;28;19962;-68
2023/05/13 05:19:24;;;;;;;;;;;;;;;;;;5091105;28;20258;-68
2023/05/13 05:21:50;;;;;;;;;;;;;;;;;;5090656;28;19916;-68
2023/05/13 05:24:16;;;;;;;;;;;;;;;;;;5089674;28;19920;-68
2023/05/13 05:26:42;;;;;;;;;;;;;;;;;;5091056;28;19908;-68
2023/05/13 05:29:08;;;;;;;;;;;;;;;;;;5090663;28;19915;-68
2023/05/13 05:31:34;;;;;;;;;;;;;;;;;;5091067;28;19918;-68
2023/05/13 05:34:00;;;;;;;;;;;;;;;;;;5090833;28;19915;-68
2023/05/13 05:36:26;;;;;;;;;;;;;;;;;;5090445;28;19919;-68
2023/05/13 05:38:52;;;;;;;;;;;;;;;;;;5089490;28;19908;-68
2023/05/13 05:41:18;;;;;;;;;;;;;;;;;;5090794;28;19947;-68
2023/05/13 05:43:44;;;;;;;;;;;;;;;;;;5090211;28;19967;-68
2023/05/13 05:46:10;;;;;;;;;;;;;;;;;;5090612;28;19915;-71
2023/05/13 05:51:03;;;;;;;;;;;;;;;;;;5091080;28;20269;-69
2023/05/13 05:53:30;;;;;;;;;;;;;;;;;;5091393;28;20007;-68
2023/05/13 05:56:20;;;;;;;;;;;;;;;;;;5091345;27;19926;-67
2023/05/13 06:00:57;;;;;;;;;;;;;;;;;;5153445;27;20017;-69
2023/05/13 06:04:58;;;;;;;;;;;;;;;;;;5091139;27;19923;-68
2023/05/13 06:07:24;;;;;;;;;;;;;;;;;;5091605;28;20003;-70
2023/05/13 06:09:50;;;;;;;;;;;;;;;;;;5091369;28;19947;-68
2023/05/13 06:12:16;;;;;;;;;;;;;;;;;;5090922;28;19916;-69
2023/05/13 06:15:14;;;;;;;;;;;;;;;;;;5091443;27;19922;-68
2023/05/13 06:17:40;;;;;;;;;;;;;;;;;;5090923;28;20368;-69
2023/05/13 06:20:52;;;;;;;;;;;;;;;;;;5111883;27;20364;-68
2023/05/13 06:23:18;;;;;;;;;;;;;;;;;;5111611;28;19999;-68
2023/05/13 06:25:45;;;;;;;;;;;;;;;;;;5111262;28;19961;-68
2023/05/13 06:29:18;;;;;;;;;;;;;;;;;;5091703;27;19916;-68
2023/05/13 06:31:44;;;;;;;;;;;;;;;;;;5090920;28;20011;-68
2023/05/13 06:34:15;;;;;;;;;;;;;;;;;;5091163;28;19909;-68
2023/05/13 06:36:41;;;;;;;;;;;;;;;;;;5091226;28;19915;-68
2023/05/13 06:39:07;;;;;;;;;;;;;;;;;;5090706;28;19942;-68
2023/05/13 06:43:30;;;;;;;;;;;;;;;;;;5152798;27;20009;-68
2023/05/13 06:45:56;;;;;;;;;;;;;;;;;;5152433;27;20010;-68
2023/05/13 06:48:22;;;;;;;;;;;;;;;;;;5152764;27;20333;-68
2023/05/13 06:53:12;;;;;;;;;;;;;;;;;;5091401;28;19917;-69
2023/05/13 06:57:45;;;;;;;;;;;;;;;;;;5092141;27;19923;-68
2023/05/13 07:02:16;;;;;;;;;;;;;;;;;;5112070;27;20391;-69
2023/05/13 07:05:38;;;;;;;;;;;;;;;;;;5091637;28;19939;-68
2023/05/13 07:08:08;;;;;;;;;;;;;;;;;;5090901;28;19919;-68
2023/05/13 07:10:33;;;;;;;;;;;;;;;;;;5091221;28;19991;-68
2023/05/13 07:14:29;;;;;;;;;;;;;;;;;;5111594;27;19971;-68
2023/05/13 07:18:53;;;;;;;;;;;;;;;;;;5092256;28;19916;-68
2023/05/13 07:21:19;;;;;;;;;;;;;;;;;;5090918;28;20011;-68
2023/05/13 07:23:45;;;;;;;;;;;;;;;;;;5091085;28;19991;-70
2023/05/13 07:30:30;;;;;;;;;;;;;;;;;;5111722;27;19916;-68
2023/05/13 07:32:56;;;;;;;;;;;;;;;;;;5111662;28;20340;-68
2023/05/13 07:35:21;;;;;;;;;;;;;;;;;;5111580;28;19908;-68
2023/05/13 07:37:47;;;;;;;;;;;;;;;;;;5111485;28;19943;-68
2023/05/13 07:42:03;;;;;;;;;;;;;;;;;;5091098;27;20329;-68
2023/05/13 07:47:14;;;;;;;;;;;;;;;;;;5153187;27;19998;-69
2023/05/13 07:49:40;;;;;;;;;;;;;;;;;;5133953;27;19911;-69
2023/05/13 07:54:51;;;;;;;;;;;;;;;;;;5091465;27;19912;-68
2023/05/13 07:57:57;;;;;;;;;;;;;;;;;;5112159;27;19916;-68
2023/05/13 08:02:01;;;;;;;;;;;;;;;;;;5112248;27;19912;-68
2023/05/13 08:04:27;;;;;;;;;;;;;;;;;;5111205;28;19912;-68
2023/05/13 08:06:53;;;;;;;;;;;;;;;;;;5111654;28;19908;-68
2023/05/13 08:09:19;;;;;;;;;;;;;;;;;;5111469;28;19919;-68
2023/05/13 08:11:45;;;;;;;;;;;;;;;;;;5111342;28;19908;-67
2023/05/13 08:15:39;;;;;;;;;;;;;;;;;;5091803;27;19916;-68
2023/05/13 08:18:05;;;;;;;;;;;;;;;;;;5090875;28;20011;-68
2023/05/13 08:20:31;;;;;;;;;;;;;;;;;;5091350;28;19954;-70
2023/05/13 08:25:38;;;;;;;;;;;;;;;;;;5091021;28;19917;-69
2023/05/13 08:29:59;;;;;;;;;;;;;;;;;;5111942;27;19912;-68
2023/05/13 08:34:27;;;;;;;;;;;;;;;;;;5091995;27;20272;-68
2023/05/13 08:51:16;;;;;;;;;;;;;;;;;;5090950;27;19923;-68
2023/05/13 08:58:30;;;;;;;;;;;;;;;;;;5091491;27;20364;-68
2023/05/13 09:01:14;;;;;;;;;;;;;;;;;;5090620;27;20291;-68
2023/05/13 09:03:40;;;;;;;;;;;;;;;;;;5090633;28;19923;-68
2023/05/13 09:06:06;;;;;;;;;;;;;;;;;;5090267;28;19909;-68
2023/05/13 09:08:32;;;;;;;;;;;;;;;;;;5090663;28;20007;-68
2023/05/13 09:10:58;;;;;;;;;;;;;;;;;;5090594;28;19932;-68
2023/05/13 09:13:24;;;;;;;;;;;;;;;;;;5090254;28;19918;-68
2023/05/13 09:18:23;;;;;;;;;;;;;;;;;;5111341;27;19916;-69
2023/05/13 09:22:01;;;;;;;;;;;;;;;;;;5090481;27;20388;-70
2023/05/13 09:24:27;;;;;;;;;;;;;;;;;;5090763;28;20007;-68
2023/05/13 09:26:53;;;;;;;;;;;;;;;;;;5090741;28;19908;-68
2023/05/13 09:29:20;;;;;;;;;;;;;;;;;;5090280;28;20383;-68
2023/05/13 09:31:47;;;;;;;;;;;;;;;;;;5090685;28;20277;-70
2023/05/13 09:34:13;;;;;;;;;;;;;;;;;;5090196;28;19909;-68
2023/05/13 09:36:39;;;;;;;;;;;;;;;;;;5090558;28;19932;-68
2023/05/13 09:39:54;;;;;;;;;;;;;;;;;;4999020;27;2084348;-68
2023/05/13 09:42:20;;;;;;;;;;;;;;;;;;5070089;28;19919;-68
2023/05/13 09:44:46;;;;;;;;;;;;;;;;;;5070423;28;19919;-68
2023/05/13 09:51:06;;;;;;;;;;;;;;;;;;5091119;27;19923;-69
2023/05/13 09:56:02;;;;;;;;;;;;;;;;;;5070590;28;19923;-69
2023/05/13 10:01:38;;;;;;;;;;;;;;;;;;5111834;27;20372;-68
2023/05/13 10:04:17;;;;;;;;;;;;;;;;;;5151965;27;19922;-68
2023/05/13 10:08:51;;;;;;;;;;;;;;;;;;5173381;27;19914;-68
2023/05/13 10:11:17;;;;;;;;;;;;;;;;;;5172817;27;20009;-69
2023/05/13 10:13:43;;;;;;;;;;;;;;;;;;5173062;27;20315;-69
2023/05/13 10:24:59;;;;;;;;;;;;;;;;;;5090484;28;19923;-68
2023/05/13 10:27:25;;;;;;;;;;;;;;;;;;5091016;28;20007;-69
2023/05/13 10:32:12;;;;;;;;;;;;;;;;;;5110871;27;19912;-70
2023/05/13 10:34:38;;;;;;;;;;;;;;;;;;5111431;28;19918;-69
2023/05/13 10:39:03;;;;;;;;;;;;;;;;;;5090631;27;20302;-69
2023/05/13 10:41:29;;;;;;;;;;;;;;;;;;5091203;28;19919;-69
2023/05/13 10:48:12;;;;;;;;;;;;;;;;;;5152627;27;20364;-69
2023/05/13 10:51:38;;;;;;;;;;;;;;;;;;5111008;27;19916;-70
2023/05/13 11:00:58;;;;;;;;;;;;;;;;;;5111541;27;19912;-68
2023/05/13 11:03:24;;;;;;;;;;;;;;;;;;5111418;28;20015;-69
2023/05/13 11:09:15;;;;;;;;;;;;;;;;;;5070693;28;19916;-68
2023/05/13 11:12:15;;;;;;;;;;;;;;;;;;5152593;27;19918;-69
2023/05/13 11:20:26;;;;;;;;;;;;;;;;;;5090955;28;19917;-69
2023/05/13 11:22:52;;;;;;;;;;;;;;;;;;5091531;28;20412;-69
2023/05/13 11:26:03;;;;;;;;;;;;;;;;;;5091572;27;19916;-68
2023/05/13 11:28:29;;;;;;;;;;;;;;;;;;5090488;28;19912;-68
2023/05/13 11:32:31;;;;;;;;;;;;;;;;;;5111748;27;19920;-68
2023/05/13 11:34:57;;;;;;;;;;;;;;;;;;5110844;28;20432;-69
2023/05/13 11:37:23;;;;;;;;;;;;;;;;;;5111152;28;19912;-69
2023/05/13 11:39:49;;;;;;;;;;;;;;;;;;5111085;28;20360;-69
2023/05/13 11:42:15;;;;;;;;;;;;;;;;;;5110707;28;19909;-70
2023/05/13 11:44:45;;;;;;;7.95;4.20;;;;;;;;;;5108488;28;20387;-69
2023/05/13 11:47:11;;;;;;;8.80;4.20;;;;;;;;;;5111061;28;20035;-69
2023/05/13 11:49:47;;;;;;;6.32;4.10;;;;;;;;;;5110024;28;20149;-69
2023/05/13 11:52:51;;;;;;;6.93;4.82;;;;;;;;;;5062568;27;1408950;-69
2023/05/13 11:55:17;;;;;;;;;;;;;;;;;;5090485;28;20031;-69
2023/05/13 11:57:43;;;;;;;;;;;;;;;;;;5090796;28;19909;-69
2023/05/13 12:00:11;;;;;;;;;;;;;;;;;;5090627;28;19999;-70
2023/05/13 12:02:39;;;;;;;;;;;;;;;;;;5090635;28;20011;-68
2023/05/13 12:05:05;;;;;;;;;;;;;;;;;;5089330;28;19908;-69
2023/05/13 12:07:30;;;;;;;;;;;;;;;;;;5090579;28;19909;-69
2023/05/13 12:09:56;;;;;;;;;;;;;;;;;;5090053;28;19920;-68
2023/05/13 12:12:22;;;;;;;;;;;;;;;;;;5089121;28;19924;-69
2023/05/13 12:14:51;;;;;;;;;;;;;;;;;;5090485;28;19909;-68
2023/05/13 12:17:17;;;;;;;;;;;;;;;;;;5089978;28;20053;-69
2023/05/13 12:19:43;;;;;;;;;;;;;;;;;;5090386;28;19951;-69
2023/05/13 12:22:09;;;;;;;;;;;;;;;;;;5090307;28;19915;-68
2023/05/13 12:24:35;;;;;;;;;;;;;;;;;;5089738;28;19912;-69
2023/05/13 12:27:01;;;;;;;;;;;;;;;;;;5090154;28;19959;-69
2023/05/13 12:29:27;;;;;;;;;;;;;;;;;;5090168;28;19959;-69
2023/05/13 12:31:54;;;;;;;;;;;;;;;;;;5089599;28;19923;-69
2023/05/13 12:34:19;;;;;;;;;;;;;;;;;;5089970;28;20292;-69
2023/05/13 12:36:45;;;;;;;;;;;;;;;;;;5089952;28;19916;-69
2023/05/13 12:39:11;;;;;;;;;;;;;;;;;;5089495;28;19909;-69
2023/05/13 12:41:37;;;;;;;;;;;;;;;;;;5089957;28;20003;-69
2023/05/13 12:44:03;;;;;;;;;;;;;;;;;;5090229;28;19908;-68
2023/05/13 12:46:29;;;;;;;;;;;;;;;;;;5090129;28;19915;-69
2023/05/13 12:48:55;;;;;;;;;;;;;;;;;;5089797;28;19965;-69
2023/05/13 12:51:21;;;;;;;;;;;;;;;;;;5097224;28;19920;-69
2023/05/13 12:53:47;;;;;;;;;;;;;;;;;;5110311;28;19915;-69
2023/05/13 12:56:13;;;;;;;;;;;;;;;;;;5109890;28;19908;-69
2023/05/13 12:58:39;;;;;;;;;;;;;;;;;;5109379;28;19908;-69
2023/05/13 13:01:05;;;;;;;;;;;;;;;;;;5109865;28;19916;-69
2023/05/13 13:03:31;;;;;;;;;;;;;;;;;;5099591;28;19908;-69
2023/05/13 13:05:57;;;;;;;;;;;;;;;;;;5096057;28;20076;-69
2023/05/13 13:08:23;;;;;;;;;;;;;;;;;;5096202;28;19908;-69
2023/05/13 13:10:49;;;;;;;;;;;;;;;;;;5096580;28;19912;-69
2023/05/13 13:13:15;;;;;;;;;;;;;;;;;;5095729;28;20320;-69
2023/05/13 13:15:41;;;;;;;;;;;;;;;;;;5077844;28;19938;-69
2023/05/13 13:18:08;;;;;;;;;;;;;;;;;;5095953;28;19991;-69
2023/05/13 13:20:33;;;;;;;;;;;;;;;;;;5095565;28;19908;-70
2023/05/13 13:23:00;;;;;;;;;;;;;;;;;;5096138;28;20007;-69
2023/05/13 13:25:27;;;;;;;;;;;;;;;;;;5077757;28;19909;-69
2023/05/13 13:27:53;;;;;;;;;;;;;;;;;;5095435;28;19936;-70
2023/05/13 13:30:19;;;;;;;;;;;;;;;;;;5095721;28;19915;-69
2023/05/13 13:32:45;;;;;;;;;;;;;;;;;;5095841;28;19922;-69
2023/05/13 13:35:11;;;;;;;;;;;;;;;;;;5095248;28;20057;-69
2023/05/13 13:37:37;;;;;;;;;;;;;;;;;;5095617;28;20008;-69
2023/05/13 13:40:03;;;;;;;;;;;;;;;;;;5095584;28;19986;-70
2023/05/13 13:43:42;;;;;;;;;;;;;;;;;;5111937;27;20324;-69
2023/05/13 13:46:08;;;;;;;;;;;;;;;;;;5111326;28;19912;-70
2023/05/13 13:48:33;;;;;;;;;;;;;;;;;;5110920;28;19908;-69
2023/05/13 13:50:59;;;;;;;;;;;;;;;;;;5111341;28;19915;-70
2023/05/13 13:53:25;;;;;;;;;;;;;;;;;;5111110;28;19914;-69
2023/05/13 13:55:51;;;;;;;;;;;;;;;;;;5110711;28;19915;-69
2023/05/13 14:02:29;;;;;;;;;;;;;;;;;;5090857;27;19923;-68
2023/05/13 14:07:17;;;;;;;;;;;;;;;;;;5111392;27;19916;-70
2023/05/13 14:09:43;;;;;;;;;;;;;;;;;;5110959;28;20003;-69
2023/05/13 14:12:09;;;;;;;;;;;;;;;;;;5111482;28;20256;-70
2023/05/13 14:23:30;;;;;;;;;;;;;;;;;;5111323;27;19916;-71
2023/05/13 14:25:56;;;;;;;;;;;;;;;;;;5111321;28;20384;-70
2023/05/13 14:28:22;;;;;;;;;;;;;;;;;;5109886;28;19958;-70
2023/05/13 14:30:48;;;;;;;;;;;;;;;;;;5110921;28;19962;-70
2023/05/13 14:33:14;;;;;;;;;;;;;;;;;;5111233;28;19942;-70
2023/05/13 14:38:09;;;;;;;;;;;;;;;;;;5090744;28;19923;-71
2023/05/13 14:43:09;;;;;;;;;;;;;;;;;;5091110;27;19919;-68
2023/05/13 14:45:35;;;;;;;;;;;;;;;;;;5090483;28;20071;-71
2023/05/13 14:48:02;;;;;;;;;;;;;;;;;;5090704;28;19970;-70
2023/05/13 14:50:28;;;;;;;;;;;;;;;;;;5090657;28;19930;-69
2023/05/13 14:52:54;;;;;;;;;;;;;;;;;;5090353;28;19935;-69
2023/05/13 14:55:19;;;;;;;;;;;;;;;;;;5090692;28;20344;-69
2023/05/13 14:57:45;;;;;;;;;;;;;;;;;;5090699;28;20248;-69
2023/05/13 15:00:11;;;;;;;;;;;;;;;;;;5090355;28;20268;-69
2023/05/13 15:02:37;;;;;;;;;;;;;;;;;;5090432;28;20248;-69
2023/05/13 15:08:05;;;;;;;;;;;;;;;;;;5071240;28;19923;-69
2023/05/13 15:10:31;;;;;;;;;;;;;;;;;;5069159;28;20007;-69
2023/05/13 15:12:57;;;;;;;;;;;;;;;;;;5070255;28;19912;-69
2023/05/13 15:15:23;;;;;;;;;;;;;;;;;;5070581;28;19909;-70
2023/05/13 15:18:26;;;;;;;;;;;;;;;;;;5090856;27;20283;-69
2023/05/13 15:21:04;;;;;;;;;;;;;;;;;;5111188;27;19916;-69
2023/05/13 15:23:30;;;;;;;;;;;;;;;;;;5111463;28;20010;-69
2023/05/13 15:26:16;;;;;;;;;;;;;;;;;;5090937;27;19916;-68
2023/05/13 15:28:42;;;;;;;;;;;;;;;;;;5090743;28;20008;-68
2023/05/13 15:33:12;;;;;;;;;;;;;;;;;;5152328;27;20002;-69
2023/05/13 15:35:38;;;;;;;;;;;;;;;;;;5152635;27;19949;-69
2023/05/13 15:38:04;;;;;;;;;;;;;;;;;;5152489;27;19908;-69
2023/05/13 15:40:30;;;;;;;;;;;;;;;;;;5151862;27;19908;-69
2023/05/13 15:52:14;;;;;;;;;;;;;;;;;;5091154;27;19923;-69
2023/05/13 15:55:12;;;;;;;;;;;;;;;;;;5090665;27;19916;-69
2023/05/13 15:57:39;;;;;;;;;;;;;;;;;;5091026;28;19919;-68
2023/05/13 16:00:05;;;;;;;;;;;;;;;;;;5091049;28;19908;-69
2023/05/13 16:02:38;;;;;;;;;;;;;;;;;;5090591;28;20361;-68
2023/05/13 16:06:56;;;;;;;;;;;;;;;;;;5091341;27;19923;-70
2023/05/13 16:09:22;;;;;;;;;;;;;;;;;;5090509;28;20007;-70
2023/05/13 16:13:51;;;;;;;;;;;;;;;;;;5090959;27;19927;-69
2023/05/13 16:16:55;;;;;;;;;;;;;;;;;;5090584;27;20265;-68
2023/05/13 16:22:12;;;;;;;;;;;;;;;;;;5070570;28;19917;-69
2023/05/13 16:28:53;;;;;;;;;;;;;;;;;;5091006;28;20246;-70
2023/05/13 16:32:33;;;;;;;;;;;;;;;;;;5091637;27;20378;-71
2023/05/13 16:35:00;;;;;;;;;;;;;;;;;;5091019;28;20011;-69
2023/05/13 16:37:57;;;;;;;;;;;;;;;;;;5090504;27;20276;-70
2023/05/13 16:40:23;;;;;;;;;;;;;;;;;;5090792;28;20006;-69
2023/05/13 16:42:50;;;;;;;;;;;;;;;;;;5090844;28;19932;-69
2023/05/13 16:46:37;;;;;;;;;;;;;;;;;;5091051;27;19920;-71
2023/05/13 16:53:26;;;;;;;;;;;;;;;;;;5111784;27;19916;-69
2023/05/13 16:57:22;;;;;;;;;;;;;;;;;;5090907;27;19917;-68
2023/05/13 17:03:21;;;;;;;;;;;;;;;;;;5111765;27;19916;-68
2023/05/13 17:05:47;;;;;;;;;;;;;;;;;;5110927;28;20006;-69
2023/05/13 17:11:48;;;;;;;;;;;;;;;;;;5111469;27;19916;-69
2023/05/13 17:14:14;;;;;;;;;;;;;;;;;;5111256;28;20002;-70
2023/05/13 17:22:22;;;;;;;;;;;;;;;;;;5111598;27;19912;-70
2023/05/13 17:24:48;;;;;;;;;;;;;;;;;;5111260;28;20011;-69
2023/05/13 17:27:14;;;;;;;;;;;;;;;;;;5109486;28;19908;-69
2023/05/13 17:30:07;;;;;;;;;;;;;;;;;;5112038;27;19912;-69
2023/05/13 17:32:33;;;;;;;;;;;;;;;;;;5110762;28;20324;-69
2023/05/13 17:35:00;;;;;;;;;;;;;;;;;;5111258;28;19908;-68
2023/05/13 17:37:26;;;;;;;;;;;;;;;;;;5111149;28;19912;-68
2023/05/13 17:41:43;;;;;;;;;;;;;;;;;;5152638;27;19912;-69
2023/05/13 17:44:09;;;;;;;;;;;;;;;;;;5152517;27;19918;-70
2023/05/13 17:49:45;;;;;;;;;;;;;;;;;;5090950;27;19919;-70
2023/05/13 17:57:26;;;;;;;;;;;;;;;;;;5091522;27;19922;-68
2023/05/13 17:59:52;;;;;;;;;;;;;;;;;;5091036;28;19912;-68
2023/05/13 18:02:18;;;;;;;;;;;;;;;;;;5090421;28;20237;-69
2023/05/13 18:04:45;;;;;;;;;;;;;;;;;;5090674;28;20000;-69
2023/05/13 18:07:10;;;;;;;;;;;;;;;;;;5090933;28;19908;-69
2023/05/13 18:10:55;;;;;;;;;;;;;;;;;;5111400;27;20326;-69
2023/05/13 18:13:39;;;;;;;;;;;;;;;;;;5152723;27;20006;-69
2023/05/13 18:21:10;;;;;;;;;;;;;;;;;;5111405;28;19981;-71
2023/05/13 18:23:36;;;;;;;;;;;;;;;;;;5110825;28;20003;-69
2023/05/13 18:26:02;;;;;;;;;;;;;;;;;;5111152;28;19943;-69
2023/05/13 18:29:20;;;;;;;;;;;;;;;;;;5090923;27;20021;-70
2023/05/13 18:38:38;;;;;;;;;;;;;;;;;;5091380;27;20295;-68
2023/05/13 18:41:22;;;;;;;;;;;;;;;;;;5091477;27;20256;-70
2023/05/13 18:44:43;;;;;;;;;;;;;;;;;;5090650;27;20288;-70
2023/05/13 18:50:08;;;;;;;;;;;;;;;;;;5090567;27;19916;-69
2023/05/13 18:52:34;;;;;;;;;;;;;;;;;;5090927;28;19916;-71
2023/05/13 18:55:00;;;;;;;;;;;;;;;;;;5089659;28;19991;-70
2023/05/13 18:57:26;;;;;;;;;;;;;;;;;;5090387;28;19908;-68
2023/05/13 19:01:32;;;;;;;;;;;;;;;;;;5091329;28;19923;-70
2023/05/13 19:05:37;;;;;;;;;;;;;;;;;;5152177;27;19922;-69
2023/05/13 19:08:04;;;;;;;;;;;;;;;;;;5152464;27;19947;-69
2023/05/13 19:10:30;;;;;;;;;;;;;;;;;;5152430;27;19908;-69
2023/05/13 19:13:29;;;;;;;;;;;;;;;;;;5091327;27;19932;-71
2023/05/13 19:15:55;;;;;;;;;;;;;;;;;;5091133;28;20007;-68
2023/05/13 19:20:46;;;;;;;;;;;;;;;;;;5112166;27;19916;-71
2023/05/13 19:28:50;;;;;;;;;;;;;;;;;;5091372;28;19919;-70
2023/05/13 19:31:15;;;;;;;;;;;;;;;;;;5091305;28;20006;-71
2023/05/13 19:33:41;;;;;;;;;;;;;;;;;;5090874;28;19908;-70
2023/05/13 19:36:07;;;;;;;;;;;;;;;;;;5091216;28;19912;-70
2023/05/13 19:38:33;;;;;;;;;;;;;;;;;;5091153;28;20003;-70
2023/05/13 19:41:00;;;;;;;;;;;;;;;;;;5090673;28;19916;-70
2023/05/13 19:49:49;;;;;;;;;;;;;;;;;;5091687;28;20296;-70
2023/05/13 19:52:15;;;;;;;;;;;;;;;;;;5091380;28;20011;-70
2023/05/13 19:54:41;;;;;;;;;;;;;;;;;;5091052;28;20425;-70
2023/05/13 19:58:44;;;;;;;;;;;;;;;;;;5091661;28;19923;-70
2023/05/13 20:01:10;;;;;;;;;;;;;;;;;;5090987;28;20007;-69
2023/05/13 20:03:36;;;;;;;;;;;;;;;;;;5091493;28;19914;-69
2023/05/13 20:06:02;;;;;;;;;;;;;;;;;;5091234;28;19908;-69
2023/05/13 20:09:02;;;;;;;;;;;;;;;;;;5091206;28;19917;-69
2023/05/13 20:11:28;;;;;;;;;;;;;;;;;;5091324;28;19965;-68
2023/05/13 20:15:06;;;;;;;;;;;;;;;;;;5091497;27;19922;-69
2023/05/13 20:19:19;;;;;;;;;;;;;;;;;;5112159;27;19916;-68
2023/05/13 20:26:26;;;;;;;;;;;;;;;;;;5111738;27;19912;-68
2023/05/13 20:28:52;;;;;;;;;;;;;;;;;;5111043;28;20010;-68
2023/05/13 20:35:11;;;;;;;;;;;;;;;;;;5090964;27;19923;-70
2023/05/13 20:37:37;;;;;;;;;;;;;;;;;;5090980;28;19919;-70
2023/05/13 20:41:57;;;;;;;;;;;;;;;;;;5112004;27;19916;-69
2023/05/13 20:47:44;;;;;;;;;;;;;;;;;;5132562;27;19912;-68
2023/05/13 20:58:17;;;;;;;;;;;;;;;;;;5090955;28;20372;-70
2023/05/13 21:01:21;;;;;;;;;;;;;;;;;;5091890;28;19923;-69
2023/05/13 21:05:02;;;;;;;;;;;;;;;;;;5111531;27;19916;-71
2023/05/13 21:07:28;;;;;;;;;;;;;;;;;;5112083;28;20255;-69